sensor_id;sensor_type;location;lat;lon;timestamp;P1;durP1;ratioP1;P2;durP2;ratioP2
59390;SDS011;53405;57.012;40.984;2022-09-09T00:07:38;2.65;;;0.90;;
59390;SDS011;53405;57.012;40.984;2022-09-09T00:10:37;2.35;;;1.05;;
59390;SDS011;53405;57.012;40.984;2022-09-09T00:14:00;3.60;;;0.90;;
59390;SDS011;53405;57.012;40.984;2022-09-09T00:16:41;1.45;;;0.82;;
59390;SDS011;53405;57.012;40.984;2022-09-09T00:19:44;5.05;;;0.90;;
59390;SDS011;53405;57.012;40.984;2022-09-09T00:22:39;2.10;;;1.10;;
59390;SDS011;53405;57.012;40.984;2022-09-09T00:25:34;1.75;;;0.80;;
59390;SDS011;53405;57.012;40.984;2022-09-09T00:28:27;2.03;;;1.00;;
59390;SDS011;53405;57.012;40.984;2022-09-09T00:31:20;3.22;;;0.82;;
59390;SDS011;53405;57.012;40.984;2022-09-09T00:34:23;1.83;;;0.95;;
59390;SDS011;53405;57.012;40.984;2022-09-09T00:37:13;1.23;;;0.80;;
59390;SDS011;53405;57.012;40.984;2022-09-09T00:40:02;2.65;;;0.88;;
59390;SDS011;53405;57.012;40.984;2022-09-09T00:43:23;1.58;;;0.80;;
59390;SDS011;53405;57.012;40.984;2022-09-09T00:49:32;1.85;;;0.90;;
59390;SDS011;53405;57.012;40.984;2022-09-09T00:55:56;4.60;;;0.90;;
59390;SDS011;53405;57.012;40.984;2022-09-09T01:02:38;1.98;;;1.00;;
59390;SDS011;53405;57.012;40.984;2022-09-09T01:14:16;2.65;;;0.88;;
59390;SDS011;53405;57.012;40.984;2022-09-09T01:23:38;1.98;;;0.90;;
59390;SDS011;53405;57.012;40.984;2022-09-09T01:27:00;3.10;;;0.80;;
59390;SDS011;53405;57.012;40.984;2022-09-09T01:29:51;1.55;;;0.80;;
59390;SDS011;53405;57.012;40.984;2022-09-09T01:32:50;1.33;;;0.70;;
59390;SDS011;53405;57.012;40.984;2022-09-09T01:38:53;0.93;;;0.70;;
59390;SDS011;53405;57.012;40.984;2022-09-09T01:41:41;2.95;;;0.98;;
59390;SDS011;53405;57.012;40.984;2022-09-09T01:44:31;2.45;;;0.70;;
59390;SDS011;53405;57.012;40.984;2022-09-09T01:47:21;2.83;;;0.82;;
59390;SDS011;53405;57.012;40.984;2022-09-09T01:50:20;1.98;;;0.70;;
59390;SDS011;53405;57.012;40.984;2022-09-09T01:53:09;1.45;;;0.80;;
59390;SDS011;53405;57.012;40.984;2022-09-09T02:05:17;3.10;;;1.30;;
59390;SDS011;53405;57.012;40.984;2022-09-09T02:08:20;2.78;;;1.05;;
59390;SDS011;53405;57.012;40.984;2022-09-09T02:11:25;3.30;;;1.10;;
59390;SDS011;53405;57.012;40.984;2022-09-09T02:14:36;2.15;;;0.90;;
59390;SDS011;53405;57.012;40.984;2022-09-09T02:17:30;3.72;;;1.20;;
59390;SDS011;53405;57.012;40.984;2022-09-09T02:20:34;3.13;;;1.25;;
59390;SDS011;53405;57.012;40.984;2022-09-09T02:23:35;2.58;;;1.10;;
59390;SDS011;53405;57.012;40.984;2022-09-09T02:26:27;4.05;;;1.35;;
59390;SDS011;53405;57.012;40.984;2022-09-09T02:29:22;3.08;;;1.30;;
59390;SDS011;53405;57.012;40.984;2022-09-09T02:32:15;3.70;;;1.23;;
59390;SDS011;53405;57.012;40.984;2022-09-09T02:35:08;4.93;;;1.20;;
59390;SDS011;53405;57.012;40.984;2022-09-09T02:38:01;4.65;;;2.00;;
59390;SDS011;53405;57.012;40.984;2022-09-09T02:40:52;4.68;;;1.58;;
59390;SDS011;53405;57.012;40.984;2022-09-09T02:43:40;2.72;;;1.42;;
59390;SDS011;53405;57.012;40.984;2022-09-09T02:53:10;2.55;;;1.40;;
59390;SDS011;53405;57.012;40.984;2022-09-09T02:56:09;1.73;;;1.10;;
59390;SDS011;53405;57.012;40.984;2022-09-09T02:59:04;2.47;;;1.10;;
59390;SDS011;53405;57.012;40.984;2022-09-09T03:01:54;2.22;;;1.00;;
59390;SDS011;53405;57.012;40.984;2022-09-09T03:04:43;4.23;;;1.30;;
59390;SDS011;53405;57.012;40.984;2022-09-09T03:07:33;4.30;;;1.35;;
59390;SDS011;53405;57.012;40.984;2022-09-09T03:10:21;3.85;;;1.00;;
59390;SDS011;53405;57.012;40.984;2022-09-09T03:13:08;2.38;;;0.90;;
59390;SDS011;53405;57.012;40.984;2022-09-09T03:15:58;1.90;;;1.10;;
59390;SDS011;53405;57.012;40.984;2022-09-09T03:18:50;1.95;;;1.10;;
59390;SDS011;53405;57.012;40.984;2022-09-09T03:21:39;2.55;;;1.20;;
59390;SDS011;53405;57.012;40.984;2022-09-09T03:24:27;2.00;;;1.00;;
59390;SDS011;53405;57.012;40.984;2022-09-09T03:27:14;3.83;;;1.35;;
59390;SDS011;53405;57.012;40.984;2022-09-09T03:30:04;5.50;;;1.40;;
59390;SDS011;53405;57.012;40.984;2022-09-09T03:32:52;2.40;;;1.60;;
59390;SDS011;53405;57.012;40.984;2022-09-09T03:35:44;2.75;;;1.13;;
59390;SDS011;53405;57.012;40.984;2022-09-09T03:38:37;3.92;;;1.40;;
59390;SDS011;53405;57.012;40.984;2022-09-09T03:41:25;4.10;;;1.30;;
59390;SDS011;53405;57.012;40.984;2022-09-09T03:44:13;4.43;;;1.35;;
59390;SDS011;53405;57.012;40.984;2022-09-09T03:47:02;2.65;;;1.00;;
59390;SDS011;53405;57.012;40.984;2022-09-09T03:49:50;3.92;;;0.88;;
59390;SDS011;53405;57.012;40.984;2022-09-09T03:52:38;2.65;;;0.90;;
59390;SDS011;53405;57.012;40.984;2022-09-09T03:55:36;3.67;;;0.80;;
59390;SDS011;53405;57.012;40.984;2022-09-09T03:58:24;3.45;;;1.10;;
59390;SDS011;53405;57.012;40.984;2022-09-09T04:01:18;3.65;;;0.80;;
59390;SDS011;53405;57.012;40.984;2022-09-09T04:04:07;3.03;;;1.20;;
59390;SDS011;53405;57.012;40.984;2022-09-09T04:06:56;6.47;;;0.88;;
59390;SDS011;53405;57.012;40.984;2022-09-09T04:09:43;0.82;;;0.60;;
59390;SDS011;53405;57.012;40.984;2022-09-09T04:12:33;1.77;;;0.77;;
59390;SDS011;53405;57.012;40.984;2022-09-09T04:15:22;4.68;;;0.90;;
59390;SDS011;53405;57.012;40.984;2022-09-09T04:18:09;2.22;;;0.75;;
59390;SDS011;53405;57.012;40.984;2022-09-09T04:20:59;2.58;;;0.90;;
59390;SDS011;53405;57.012;40.984;2022-09-09T04:23:51;2.78;;;0.90;;
59390;SDS011;53405;57.012;40.984;2022-09-09T04:26:40;2.78;;;0.70;;
59390;SDS011;53405;57.012;40.984;2022-09-09T04:29:28;4.38;;;1.83;;
59390;SDS011;53405;57.012;40.984;2022-09-09T04:32:16;4.13;;;0.73;;
59390;SDS011;53405;57.012;40.984;2022-09-09T04:35:05;3.73;;;0.83;;
59390;SDS011;53405;57.012;40.984;2022-09-09T04:37:54;2.90;;;0.80;;
59390;SDS011;53405;57.012;40.984;2022-09-09T04:40:48;2.75;;;0.85;;
59390;SDS011;53405;57.012;40.984;2022-09-09T04:43:42;3.85;;;1.27;;
59390;SDS011;53405;57.012;40.984;2022-09-09T04:46:31;1.90;;;0.90;;
59390;SDS011;53405;57.012;40.984;2022-09-09T04:49:23;3.90;;;0.80;;
59390;SDS011;53405;57.012;40.984;2022-09-09T04:52:29;3.53;;;1.00;;
59390;SDS011;53405;57.012;40.984;2022-09-09T04:55:17;4.53;;;1.02;;
59390;SDS011;53405;57.012;40.984;2022-09-09T04:58:05;6.07;;;1.10;;
59390;SDS011;53405;57.012;40.984;2022-09-09T05:00:54;1.80;;;0.82;;
59390;SDS011;53405;57.012;40.984;2022-09-09T05:04:02;3.67;;;1.20;;
59390;SDS011;53405;57.012;40.984;2022-09-09T05:06:56;3.22;;;0.85;;
59390;SDS011;53405;57.012;40.984;2022-09-09T05:10:02;2.85;;;0.98;;
59390;SDS011;53405;57.012;40.984;2022-09-09T05:12:56;4.35;;;0.80;;
59390;SDS011;53405;57.012;40.984;2022-09-09T05:15:57;3.17;;;0.70;;
59390;SDS011;53405;57.012;40.984;2022-09-09T05:18:47;4.68;;;0.93;;
59390;SDS011;53405;57.012;40.984;2022-09-09T05:21:38;2.50;;;0.73;;
59390;SDS011;53405;57.012;40.984;2022-09-09T05:24:26;5.53;;;0.95;;
59390;SDS011;53405;57.012;40.984;2022-09-09T05:27:17;5.95;;;1.08;;
59390;SDS011;53405;57.012;40.984;2022-09-09T05:30:09;4.88;;;1.20;;
59390;SDS011;53405;57.012;40.984;2022-09-09T05:32:57;4.00;;;0.90;;
59390;SDS011;53405;57.012;40.984;2022-09-09T05:35:45;2.90;;;0.60;;
59390;SDS011;53405;57.012;40.984;2022-09-09T05:38:33;6.20;;;0.98;;
59390;SDS011;53405;57.012;40.984;2022-09-09T05:41:24;3.63;;;0.90;;
59390;SDS011;53405;57.012;40.984;2022-09-09T05:44:14;2.92;;;0.63;;
59390;SDS011;53405;57.012;40.984;2022-09-09T05:47:03;2.53;;;0.70;;
59390;SDS011;53405;57.012;40.984;2022-09-09T05:49:51;3.17;;;0.80;;
59390;SDS011;53405;57.012;40.984;2022-09-09T05:52:39;0.43;;;0.40;;
59390;SDS011;53405;57.012;40.984;2022-09-09T05:55:27;5.45;;;0.60;;
59390;SDS011;53405;57.012;40.984;2022-09-09T05:58:16;2.17;;;0.57;;
59390;SDS011;53405;57.012;40.984;2022-09-09T06:01:10;4.90;;;0.70;;
59390;SDS011;53405;57.012;40.984;2022-09-09T06:04:03;2.92;;;0.60;;
59390;SDS011;53405;57.012;40.984;2022-09-09T06:06:52;2.30;;;0.80;;
59390;SDS011;53405;57.012;40.984;2022-09-09T06:09:41;4.45;;;0.75;;
59390;SDS011;53405;57.012;40.984;2022-09-09T06:12:29;4.00;;;0.80;;
59390;SDS011;53405;57.012;40.984;2022-09-09T06:15:17;3.00;;;1.67;;
59390;SDS011;53405;57.012;40.984;2022-09-09T06:18:04;2.53;;;0.60;;
59390;SDS011;53405;57.012;40.984;2022-09-09T06:20:53;2.50;;;0.80;;
59390;SDS011;53405;57.012;40.984;2022-09-09T06:23:51;5.78;;;0.65;;
59390;SDS011;53405;57.012;40.984;2022-09-09T06:26:41;0.93;;;0.40;;
59390;SDS011;53405;57.012;40.984;2022-09-09T06:29:32;1.98;;;0.47;;
59390;SDS011;53405;57.012;40.984;2022-09-09T06:32:21;5.72;;;1.10;;
59390;SDS011;53405;57.012;40.984;2022-09-09T06:35:09;2.97;;;0.77;;
59390;SDS011;53405;57.012;40.984;2022-09-09T06:37:59;2.15;;;0.60;;
59390;SDS011;53405;57.012;40.984;2022-09-09T06:43:43;2.25;;;0.65;;
59390;SDS011;53405;57.012;40.984;2022-09-09T06:46:36;1.75;;;0.65;;
59390;SDS011;53405;57.012;40.984;2022-09-09T06:49:30;4.20;;;1.00;;
59390;SDS011;53405;57.012;40.984;2022-09-09T06:52:24;2.25;;;1.13;;
59390;SDS011;53405;57.012;40.984;2022-09-09T06:55:16;2.63;;;0.73;;
59390;SDS011;53405;57.012;40.984;2022-09-09T06:58:08;1.60;;;0.50;;
59390;SDS011;53405;57.012;40.984;2022-09-09T07:01:07;1.55;;;0.60;;
59390;SDS011;53405;57.012;40.984;2022-09-09T07:03:55;2.83;;;0.60;;
59390;SDS011;53405;57.012;40.984;2022-09-09T07:06:47;1.02;;;0.40;;
59390;SDS011;53405;57.012;40.984;2022-09-09T07:09:39;1.58;;;0.40;;
59390;SDS011;53405;57.012;40.984;2022-09-09T07:12:32;3.08;;;0.55;;
59390;SDS011;53405;57.012;40.984;2022-09-09T07:15:20;9.47;;;3.53;;
59390;SDS011;53405;57.012;40.984;2022-09-09T07:18:12;5.50;;;0.60;;
59390;SDS011;53405;57.012;40.984;2022-09-09T07:21:03;2.45;;;0.68;;
59390;SDS011;53405;57.012;40.984;2022-09-09T07:23:55;1.77;;;0.47;;
59390;SDS011;53405;57.012;40.984;2022-09-09T07:26:44;1.90;;;0.67;;
59390;SDS011;53405;57.012;40.984;2022-09-09T07:29:33;1.83;;;0.50;;
59390;SDS011;53405;57.012;40.984;2022-09-09T07:32:25;1.52;;;0.65;;
59390;SDS011;53405;57.012;40.984;2022-09-09T07:35:18;0.93;;;0.47;;
59390;SDS011;53405;57.012;40.984;2022-09-09T07:38:07;5.27;;;0.83;;
59390;SDS011;53405;57.012;40.984;2022-09-09T07:48:11;5.28;;;0.90;;
59390;SDS011;53405;57.012;40.984;2022-09-09T07:51:04;2.28;;;0.75;;
59390;SDS011;53405;57.012;40.984;2022-09-09T07:53:55;2.25;;;0.60;;
59390;SDS011;53405;57.012;40.984;2022-09-09T07:56:50;1.48;;;0.50;;
59390;SDS011;53405;57.012;40.984;2022-09-09T07:59:43;4.15;;;0.70;;
59390;SDS011;53405;57.012;40.984;2022-09-09T08:02:30;2.15;;;1.15;;
59390;SDS011;53405;57.012;40.984;2022-09-09T08:05:19;3.17;;;0.90;;
59390;SDS011;53405;57.012;40.984;2022-09-09T08:08:10;2.35;;;0.70;;
59390;SDS011;53405;57.012;40.984;2022-09-09T08:11:06;2.30;;;0.77;;
59390;SDS011;53405;57.012;40.984;2022-09-09T08:14:04;3.08;;;0.50;;
59390;SDS011;53405;57.012;40.984;2022-09-09T08:16:54;5.22;;;0.85;;
59390;SDS011;53405;57.012;40.984;2022-09-09T08:19:46;4.40;;;0.77;;
59390;SDS011;53405;57.012;40.984;2022-09-09T08:22:39;6.15;;;0.70;;
59390;SDS011;53405;57.012;40.984;2022-09-09T08:25:33;14.57;;;10.57;;
59390;SDS011;53405;57.012;40.984;2022-09-09T08:28:24;2.78;;;0.70;;
59390;SDS011;53405;57.012;40.984;2022-09-09T08:31:13;1.42;;;0.70;;
59390;SDS011;53405;57.012;40.984;2022-09-09T08:34:18;2.28;;;0.60;;
59390;SDS011;53405;57.012;40.984;2022-09-09T08:37:14;1.42;;;0.60;;
59390;SDS011;53405;57.012;40.984;2022-09-09T08:40:04;3.22;;;0.98;;
59390;SDS011;53405;57.012;40.984;2022-09-09T08:42:56;3.40;;;1.00;;
59390;SDS011;53405;57.012;40.984;2022-09-09T08:45:54;7.75;;;1.88;;
59390;SDS011;53405;57.012;40.984;2022-09-09T08:51:48;6.35;;;1.50;;
59390;SDS011;53405;57.012;40.984;2022-09-09T08:54:37;5.07;;;1.60;;
59390;SDS011;53405;57.012;40.984;2022-09-09T08:57:37;2.28;;;0.60;;
59390;SDS011;53405;57.012;40.984;2022-09-09T09:00:29;1.88;;;0.90;;
59390;SDS011;53405;57.012;40.984;2022-09-09T09:10:03;3.47;;;0.70;;
59390;SDS011;53405;57.012;40.984;2022-09-09T09:13:33;2.95;;;0.65;;
59390;SDS011;53405;57.012;40.984;2022-09-09T09:16:39;2.40;;;0.63;;
59390;SDS011;53405;57.012;40.984;2022-09-09T09:19:52;5.30;;;1.15;;
59390;SDS011;53405;57.012;40.984;2022-09-09T09:22:47;5.88;;;1.10;;
59390;SDS011;53405;57.012;40.984;2022-09-09T09:25:39;0.75;;;0.60;;
59390;SDS011;53405;57.012;40.984;2022-09-09T09:28:33;2.75;;;0.70;;
59390;SDS011;53405;57.012;40.984;2022-09-09T09:31:28;4.78;;;0.88;;
59390;SDS011;53405;57.012;40.984;2022-09-09T09:34:16;2.30;;;0.60;;
59390;SDS011;53405;57.012;40.984;2022-09-09T09:37:12;3.08;;;0.80;;
59390;SDS011;53405;57.012;40.984;2022-09-09T09:40:11;1.80;;;0.90;;
59390;SDS011;53405;57.012;40.984;2022-09-09T09:43:01;3.80;;;0.80;;
59390;SDS011;53405;57.012;40.984;2022-09-09T09:45:53;3.75;;;1.15;;
59390;SDS011;53405;57.012;40.984;2022-09-09T09:51:54;1.73;;;0.70;;
59390;SDS011;53405;57.012;40.984;2022-09-09T09:54:49;1.38;;;0.88;;
59390;SDS011;53405;57.012;40.984;2022-09-09T09:57:39;2.95;;;0.80;;
59390;SDS011;53405;57.012;40.984;2022-09-09T10:00:30;3.17;;;0.77;;
59390;SDS011;53405;57.012;40.984;2022-09-09T10:03:26;2.53;;;0.70;;
59390;SDS011;53405;57.012;40.984;2022-09-09T10:06:32;1.92;;;0.73;;
59390;SDS011;53405;57.012;40.984;2022-09-09T10:21:56;4.68;;;0.88;;
59390;SDS011;53405;57.012;40.984;2022-09-09T10:32:16;4.50;;;0.93;;
59390;SDS011;53405;57.012;40.984;2022-09-09T10:38:52;4.18;;;1.30;;
59390;SDS011;53405;57.012;40.984;2022-09-09T10:50:45;2.17;;;0.70;;
59390;SDS011;53405;57.012;40.984;2022-09-09T10:53:50;3.47;;;0.80;;
59390;SDS011;53405;57.012;40.984;2022-09-09T10:56:58;3.25;;;0.80;;
59390;SDS011;53405;57.012;40.984;2022-09-09T10:59:52;3.50;;;0.73;;
59390;SDS011;53405;57.012;40.984;2022-09-09T11:02:43;3.83;;;0.95;;
59390;SDS011;53405;57.012;40.984;2022-09-09T11:05:41;2.28;;;0.70;;
59390;SDS011;53405;57.012;40.984;2022-09-09T11:08:33;3.90;;;0.77;;
59390;SDS011;53405;57.012;40.984;2022-09-09T11:11:27;4.72;;;0.90;;
59390;SDS011;53405;57.012;40.984;2022-09-09T11:17:10;5.97;;;0.90;;
59390;SDS011;53405;57.012;40.984;2022-09-09T11:20:04;3.17;;;1.02;;
59390;SDS011;53405;57.012;40.984;2022-09-09T11:26:58;3.40;;;1.10;;
59390;SDS011;53405;57.012;40.984;2022-09-09T11:29:41;5.47;;;0.80;;
59390;SDS011;53405;57.012;40.984;2022-09-09T11:38:50;4.13;;;1.08;;
59390;SDS011;53405;57.012;40.984;2022-09-09T11:41:39;5.85;;;0.80;;
59390;SDS011;53405;57.012;40.984;2022-09-09T11:44:29;4.35;;;0.90;;
59390;SDS011;53405;57.012;40.984;2022-09-09T11:47:20;4.18;;;1.00;;
59390;SDS011;53405;57.012;40.984;2022-09-09T11:53:23;3.10;;;1.10;;
59390;SDS011;53405;57.012;40.984;2022-09-09T11:56:11;3.88;;;1.00;;
59390;SDS011;53405;57.012;40.984;2022-09-09T11:59:02;8.65;;;1.10;;
59390;SDS011;53405;57.012;40.984;2022-09-09T12:01:56;1.55;;;0.73;;
59390;SDS011;53405;57.012;40.984;2022-09-09T12:07:51;2.40;;;0.77;;
59390;SDS011;53405;57.012;40.984;2022-09-09T12:10:52;2.15;;;0.85;;
59390;SDS011;53405;57.012;40.984;2022-09-09T12:13:51;3.58;;;1.02;;
59390;SDS011;53405;57.012;40.984;2022-09-09T12:16:40;5.13;;;1.00;;
59390;SDS011;53405;57.012;40.984;2022-09-09T12:19:28;4.25;;;1.40;;
59390;SDS011;53405;57.012;40.984;2022-09-09T12:25:34;2.90;;;0.95;;
59390;SDS011;53405;57.012;40.984;2022-09-09T12:28:44;3.78;;;1.25;;
59390;SDS011;53405;57.012;40.984;2022-09-09T12:35:13;2.50;;;1.08;;
59390;SDS011;53405;57.012;40.984;2022-09-09T12:38:10;2.90;;;1.08;;
59390;SDS011;53405;57.012;40.984;2022-09-09T12:41:19;2.45;;;1.00;;
59390;SDS011;53405;57.012;40.984;2022-09-09T12:44:18;2.47;;;0.98;;
59390;SDS011;53405;57.012;40.984;2022-09-09T12:47:06;2.40;;;0.93;;
59390;SDS011;53405;57.012;40.984;2022-09-09T12:49:57;2.45;;;0.80;;
59390;SDS011;53405;57.012;40.984;2022-09-09T12:52:45;1.25;;;0.65;;
59390;SDS011;53405;57.012;40.984;2022-09-09T12:55:37;4.65;;;0.90;;
59390;SDS011;53405;57.012;40.984;2022-09-09T12:58:26;4.50;;;0.90;;
59390;SDS011;53405;57.012;40.984;2022-09-09T13:01:23;3.67;;;0.95;;
59390;SDS011;53405;57.012;40.984;2022-09-09T13:04:20;2.20;;;0.90;;
59390;SDS011;53405;57.012;40.984;2022-09-09T13:07:10;4.85;;;1.17;;
59390;SDS011;53405;57.012;40.984;2022-09-09T13:09:59;3.88;;;1.20;;
59390;SDS011;53405;57.012;40.984;2022-09-09T13:12:46;2.78;;;0.90;;
59390;SDS011;53405;57.012;40.984;2022-09-09T13:15:35;2.75;;;0.80;;
59390;SDS011;53405;57.012;40.984;2022-09-09T13:18:23;4.18;;;0.90;;
59390;SDS011;53405;57.012;40.984;2022-09-09T13:21:14;1.80;;;1.00;;
59390;SDS011;53405;57.012;40.984;2022-09-09T13:24:03;6.38;;;1.40;;
59390;SDS011;53405;57.012;40.984;2022-09-09T13:26:58;9.73;;;1.70;;
59390;SDS011;53405;57.012;40.984;2022-09-09T13:29:52;4.50;;;1.52;;
59390;SDS011;53405;57.012;40.984;2022-09-09T13:32:44;6.32;;;1.48;;
59390;SDS011;53405;57.012;40.984;2022-09-09T13:35:32;6.35;;;1.63;;
59390;SDS011;53405;57.012;40.984;2022-09-09T13:38:20;2.37;;;0.90;;
59390;SDS011;53405;57.012;40.984;2022-09-09T13:41:18;4.95;;;0.98;;
59390;SDS011;53405;57.012;40.984;2022-09-09T13:44:17;10.35;;;1.40;;
59390;SDS011;53405;57.012;40.984;2022-09-09T13:47:34;5.82;;;0.95;;
59390;SDS011;53405;57.012;40.984;2022-09-09T13:50:27;2.28;;;0.80;;
59390;SDS011;53405;57.012;40.984;2022-09-09T13:53:16;4.15;;;1.50;;
59390;SDS011;53405;57.012;40.984;2022-09-09T13:56:03;2.45;;;0.80;;
59390;SDS011;53405;57.012;40.984;2022-09-09T13:58:52;4.73;;;0.90;;
59390;SDS011;53405;57.012;40.984;2022-09-09T14:01:40;2.58;;;0.80;;
59390;SDS011;53405;57.012;40.984;2022-09-09T14:04:28;2.83;;;0.80;;
59390;SDS011;53405;57.012;40.984;2022-09-09T14:07:16;9.85;;;4.03;;
59390;SDS011;53405;57.012;40.984;2022-09-09T14:10:06;5.43;;;1.30;;
59390;SDS011;53405;57.012;40.984;2022-09-09T14:12:54;4.38;;;1.15;;
59390;SDS011;53405;57.012;40.984;2022-09-09T14:15:41;3.03;;;0.93;;
59390;SDS011;53405;57.012;40.984;2022-09-09T14:18:29;5.20;;;1.73;;
59390;SDS011;53405;57.012;40.984;2022-09-09T14:21:17;2.78;;;1.30;;
59390;SDS011;53405;57.012;40.984;2022-09-09T14:27:18;1.90;;;0.90;;
59390;SDS011;53405;57.012;40.984;2022-09-09T14:30:06;4.47;;;1.45;;
59390;SDS011;53405;57.012;40.984;2022-09-09T14:32:54;4.47;;;1.20;;
59390;SDS011;53405;57.012;40.984;2022-09-09T14:35:42;3.75;;;1.27;;
59390;SDS011;53405;57.012;40.984;2022-09-09T14:38:32;3.65;;;1.27;;
59390;SDS011;53405;57.012;40.984;2022-09-09T14:41:25;4.57;;;1.73;;
59390;SDS011;53405;57.012;40.984;2022-09-09T14:44:13;4.82;;;1.60;;
59390;SDS011;53405;57.012;40.984;2022-09-09T14:47:01;5.30;;;1.40;;
59390;SDS011;53405;57.012;40.984;2022-09-09T14:49:48;4.53;;;1.50;;
59390;SDS011;53405;57.012;40.984;2022-09-09T14:52:37;3.63;;;1.58;;
59390;SDS011;53405;57.012;40.984;2022-09-09T14:55:25;6.07;;;1.13;;
59390;SDS011;53405;57.012;40.984;2022-09-09T14:58:15;6.38;;;1.75;;
59390;SDS011;53405;57.012;40.984;2022-09-09T15:01:04;10.35;;;2.10;;
59390;SDS011;53405;57.012;40.984;2022-09-09T15:03:53;9.60;;;3.17;;
59390;SDS011;53405;57.012;40.984;2022-09-09T15:06:42;16.65;;;6.93;;
59390;SDS011;53405;57.012;40.984;2022-09-09T15:09:34;7.25;;;2.78;;
59390;SDS011;53405;57.012;40.984;2022-09-09T15:12:23;8.43;;;2.90;;
59390;SDS011;53405;57.012;40.984;2022-09-09T15:15:11;8.50;;;2.92;;
59390;SDS011;53405;57.012;40.984;2022-09-09T15:17:59;12.00;;;3.60;;
59390;SDS011;53405;57.012;40.984;2022-09-09T15:20:47;15.15;;;4.47;;
59390;SDS011;53405;57.012;40.984;2022-09-09T15:23:35;15.70;;;4.38;;
59390;SDS011;53405;57.012;40.984;2022-09-09T15:26:23;18.35;;;5.03;;
59390;SDS011;53405;57.012;40.984;2022-09-09T15:29:11;14.55;;;4.97;;
59390;SDS011;53405;57.012;40.984;2022-09-09T15:31:59;15.35;;;5.95;;
59390;SDS011;53405;57.012;40.984;2022-09-09T15:34:46;16.00;;;6.22;;
59390;SDS011;53405;57.012;40.984;2022-09-09T15:37:34;20.95;;;6.25;;
59390;SDS011;53405;57.012;40.984;2022-09-09T15:40:22;18.00;;;6.55;;
59390;SDS011;53405;57.012;40.984;2022-09-09T15:43:09;20.05;;;6.38;;
59390;SDS011;53405;57.012;40.984;2022-09-09T15:45:58;14.32;;;5.63;;
59390;SDS011;53405;57.012;40.984;2022-09-09T15:52:09;14.43;;;5.40;;
59390;SDS011;53405;57.012;40.984;2022-09-09T15:54:58;10.45;;;4.38;;
59390;SDS011;53405;57.012;40.984;2022-09-09T15:57:48;11.63;;;4.68;;
59390;SDS011;53405;57.012;40.984;2022-09-09T16:00:36;12.65;;;4.72;;
59390;SDS011;53405;57.012;40.984;2022-09-09T16:03:24;10.00;;;3.88;;
59390;SDS011;53405;57.012;40.984;2022-09-09T16:06:12;11.43;;;3.60;;
59390;SDS011;53405;57.012;40.984;2022-09-09T16:09:03;10.80;;;4.30;;
59390;SDS011;53405;57.012;40.984;2022-09-09T16:11:52;8.32;;;4.13;;
59390;SDS011;53405;57.012;40.984;2022-09-09T16:14:45;11.65;;;4.40;;
59390;SDS011;53405;57.012;40.984;2022-09-09T16:17:33;15.02;;;4.30;;
59390;SDS011;53405;57.012;40.984;2022-09-09T16:20:24;12.65;;;5.20;;
59390;SDS011;53405;57.012;40.984;2022-09-09T16:23:12;9.75;;;3.60;;
59390;SDS011;53405;57.012;40.984;2022-09-09T16:26:00;11.15;;;4.30;;
59390;SDS011;53405;57.012;40.984;2022-09-09T16:28:51;7.60;;;3.72;;
59390;SDS011;53405;57.012;40.984;2022-09-09T16:31:41;6.70;;;2.80;;
59390;SDS011;53405;57.012;40.984;2022-09-09T16:34:29;14.73;;;5.38;;
59390;SDS011;53405;57.012;40.984;2022-09-09T16:37:17;13.07;;;3.70;;
59390;SDS011;53405;57.012;40.984;2022-09-09T16:40:05;11.38;;;3.60;;
59390;SDS011;53405;57.012;40.984;2022-09-09T16:42:53;10.63;;;4.53;;
59390;SDS011;53405;57.012;40.984;2022-09-09T16:45:45;15.47;;;7.27;;
59390;SDS011;53405;57.012;40.984;2022-09-09T16:48:36;27.48;;;12.45;;
59390;SDS011;53405;57.012;40.984;2022-09-09T16:52:00;35.30;;;12.18;;
59390;SDS011;53405;57.012;40.984;2022-09-09T16:54:44;23.40;;;9.75;;
59390;SDS011;53405;57.012;40.984;2022-09-09T16:57:33;28.77;;;8.73;;
59390;SDS011;53405;57.012;40.984;2022-09-09T17:01:00;18.63;;;7.25;;
59390;SDS011;53405;57.012;40.984;2022-09-09T17:03:54;15.65;;;6.10;;
59390;SDS011;53405;57.012;40.984;2022-09-09T17:06:47;11.15;;;4.93;;
59390;SDS011;53405;57.012;40.984;2022-09-09T17:09:36;13.18;;;5.03;;
59390;SDS011;53405;57.012;40.984;2022-09-09T17:12:56;19.73;;;7.15;;
59390;SDS011;53405;57.012;40.984;2022-09-09T17:15:48;14.85;;;6.97;;
59390;SDS011;53405;57.012;40.984;2022-09-09T17:18:39;15.07;;;6.57;;
59390;SDS011;53405;57.012;40.984;2022-09-09T17:21:27;14.40;;;6.65;;
59390;SDS011;53405;57.012;40.984;2022-09-09T17:24:15;14.15;;;6.72;;
59390;SDS011;53405;57.012;40.984;2022-09-09T17:27:03;15.43;;;6.80;;
59390;SDS011;53405;57.012;40.984;2022-09-09T17:29:51;12.70;;;5.72;;
59390;SDS011;53405;57.012;40.984;2022-09-09T17:32:39;12.25;;;6.00;;
59390;SDS011;53405;57.012;40.984;2022-09-09T17:35:27;19.63;;;5.97;;
59390;SDS011;53405;57.012;40.984;2022-09-09T17:38:18;15.65;;;6.07;;
59390;SDS011;53405;57.012;40.984;2022-09-09T17:41:13;15.57;;;6.13;;
59390;SDS011;53405;57.012;40.984;2022-09-09T17:44:04;11.43;;;6.05;;
59390;SDS011;53405;57.012;40.984;2022-09-09T17:46:55;16.50;;;6.57;;
59390;SDS011;53405;57.012;40.984;2022-09-09T17:53:06;14.77;;;5.68;;
59390;SDS011;53405;57.012;40.984;2022-09-09T17:55:53;13.35;;;5.40;;
59390;SDS011;53405;57.012;40.984;2022-09-09T17:58:42;14.80;;;6.10;;
59390;SDS011;53405;57.012;40.984;2022-09-09T18:01:32;13.60;;;5.40;;
59390;SDS011;53405;57.012;40.984;2022-09-09T18:04:21;12.30;;;5.05;;
59390;SDS011;53405;57.012;40.984;2022-09-09T18:07:13;10.57;;;5.68;;
59390;SDS011;53405;57.012;40.984;2022-09-09T18:10:00;8.70;;;5.05;;
59390;SDS011;53405;57.012;40.984;2022-09-09T18:12:49;13.20;;;5.85;;
59390;SDS011;53405;57.012;40.984;2022-09-09T18:15:37;12.70;;;5.53;;
59390;SDS011;53405;57.012;40.984;2022-09-09T18:18:34;11.50;;;5.18;;
59390;SDS011;53405;57.012;40.984;2022-09-09T18:21:24;10.70;;;5.22;;
59390;SDS011;53405;57.012;40.984;2022-09-09T18:24:19;11.68;;;5.40;;
59390;SDS011;53405;57.012;40.984;2022-09-09T18:27:10;12.18;;;5.43;;
59390;SDS011;53405;57.012;40.984;2022-09-09T18:29:58;11.57;;;4.80;;
59390;SDS011;53405;57.012;40.984;2022-09-09T18:32:47;11.95;;;5.22;;
59390;SDS011;53405;57.012;40.984;2022-09-09T18:35:36;12.55;;;4.95;;
59390;SDS011;53405;57.012;40.984;2022-09-09T18:38:24;9.27;;;4.30;;
59390;SDS011;53405;57.012;40.984;2022-09-09T18:44:12;9.25;;;4.35;;
59390;SDS011;53405;57.012;40.984;2022-09-09T18:47:02;9.35;;;4.63;;
59390;SDS011;53405;57.012;40.984;2022-09-09T18:49:50;12.35;;;4.43;;
59390;SDS011;53405;57.012;40.984;2022-09-09T18:52:37;9.05;;;3.97;;
59390;SDS011;53405;57.012;40.984;2022-09-09T18:55:25;10.95;;;4.40;;
59390;SDS011;53405;57.012;40.984;2022-09-09T19:01:02;8.68;;;4.10;;
59390;SDS011;53405;57.012;40.984;2022-09-09T19:03:52;8.13;;;3.70;;
59390;SDS011;53405;57.012;40.984;2022-09-09T19:06:41;7.45;;;3.53;;
59390;SDS011;53405;57.012;40.984;2022-09-09T19:09:31;7.15;;;3.60;;
59390;SDS011;53405;57.012;40.984;2022-09-09T19:12:20;8.65;;;3.92;;
59390;SDS011;53405;57.012;40.984;2022-09-09T19:15:08;9.65;;;4.35;;
59390;SDS011;53405;57.012;40.984;2022-09-09T19:17:56;8.68;;;4.13;;
59390;SDS011;53405;57.012;40.984;2022-09-09T19:20:44;8.23;;;3.80;;
59390;SDS011;53405;57.012;40.984;2022-09-09T19:23:32;8.90;;;4.18;;
59390;SDS011;53405;57.012;40.984;2022-09-09T19:26:20;10.93;;;4.18;;